createdAt,value
2022-08-05T00:00:15.935Z,101077.00
2022-08-05T00:02:50.902Z,101065.06
2022-08-05T00:05:27.054Z,101065.06
2022-08-05T00:08:32.815Z,101077.31
2022-08-05T00:10:54.097Z,101077.00
2022-08-05T00:13:21.546Z,101088.03
2022-08-05T00:16:08.862Z,101091.97
2022-08-05T00:18:37.982Z,101109.38
2022-08-05T00:21:06.984Z,101112.09
2022-08-05T00:23:45.901Z,101118.81
2022-08-05T00:26:23.213Z,101133.09
2022-08-05T00:28:50.544Z,101140.56
2022-08-05T00:31:53.135Z,101157.97
2022-08-05T00:34:56.057Z,101152.84
2022-08-05T00:37:11.667Z,101169.84
2022-08-05T00:39:43.975Z,101182.56
2022-08-05T00:42:11.394Z,101173.44
2022-08-05T00:44:58.276Z,101161.16
2022-08-05T00:47:53.276Z,101173.41
2022-08-05T00:50:15.228Z,101206.66
2022-08-05T00:52:41.952Z,101214.56
2022-08-05T00:55:13.142Z,101205.06
2022-08-05T00:57:58.045Z,101172.25
2022-08-05T01:00:29.329Z,101188.84
2022-08-05T01:02:57.276Z,101176.59
2022-08-05T01:05:27.589Z,101165.16
2022-08-05T01:08:40.697Z,101140.66
2022-08-05T01:10:52.834Z,101145.00
2022-08-05T01:13:57.147Z,101153.72
2022-08-05T01:17:02.030Z,101121.28
2022-08-05T01:20:01.292Z,101092.81
2022-08-05T01:23:14.912Z,101058.03
2022-08-05T01:26:00.849Z,100990.09
2022-08-05T01:28:48.984Z,100986.09
2022-08-05T01:31:20.984Z,101050.03
2022-08-05T01:33:53.590Z,101089.56
2022-08-05T01:36:28.222Z,101114.75
2022-08-05T01:38:56.269Z,101125.88
2022-08-05T01:41:25.817Z,101146.38
2022-08-05T01:43:53.590Z,101149.25
2022-08-05T01:46:42.313Z,101154.84
2022-08-05T01:49:22.700Z,101153.97
2022-08-05T01:51:54.221Z,101137.88
2022-08-05T01:54:25.519Z,101130.75
2022-08-05T01:58:11.440Z,101128.38
2022-08-05T01:59:47.236Z,101126.44
2022-08-05T02:02:14.330Z,101123.25
2022-08-05T02:04:43.276Z,101122.88
2022-08-05T02:07:22.168Z,101120.09
2022-08-05T02:09:51.127Z,101107.44
2022-08-05T02:12:36.477Z,101113.38
2022-08-05T02:15:23.611Z,101118.53
2022-08-05T02:18:31.306Z,101134.31
2022-08-05T02:21:14.764Z,101143.44
2022-08-05T02:23:44.897Z,101153.31
2022-08-05T02:26:14.247Z,101154.09
2022-08-05T02:28:45.884Z,101152.13
2022-08-05T02:31:16.705Z,101155.69
2022-08-05T02:33:57.409Z,101155.69
2022-08-05T02:36:27.441Z,101146.16
2022-08-05T02:38:56.079Z,101142.66
2022-08-05T02:41:28.650Z,101138.28
2022-08-05T02:44:12.069Z,101137.88
2022-08-05T02:46:43.842Z,101131.97
2022-08-05T02:49:20.252Z,101137.09
2022-08-05T02:52:03.540Z,101130.75
2022-08-05T02:54:36.073Z,101135.50
2022-08-05T02:57:10.172Z,101132.75
2022-08-05T02:59:54.637Z,101139.44
2022-08-05T03:02:27.488Z,101144.56
2022-08-05T03:04:55.267Z,101151.66
2022-08-05T03:07:40.463Z,101152.84
2022-08-05T03:10:10.065Z,101146.94
2022-08-05T03:12:38.685Z,101136.69
2022-08-05T03:15:09.203Z,101129.56
2022-08-05T03:17:41.515Z,101129.16
2022-08-05T03:20:10.097Z,101120.84
2022-08-05T03:22:37.145Z,101109.41
2022-08-05T03:25:31.932Z,101120.84
2022-08-05T03:27:59.770Z,101112.16
2022-08-05T03:30:33.703Z,101105.06
2022-08-05T03:33:02.195Z,101097.13
2022-08-05T03:35:33.769Z,101099.09
2022-08-05T03:38:01.384Z,101103.44
2022-08-05T03:40:31.920Z,101091.13
2022-08-05T03:43:01.324Z,101080.06
2022-08-05T03:45:57.622Z,101100.97
2022-08-05T03:48:27.509Z,101085.19
2022-08-05T03:52:49.112Z,101091.03
2022-08-05T03:55:34.061Z,101097.31
2022-08-05T03:57:16.704Z,101103.06
2022-08-05T03:59:54.727Z,101116.72
2022-08-05T04:02:37.635Z,101115.84
2022-08-05T04:05:09.563Z,101109.56
2022-08-05T04:07:52.860Z,101125.75
2022-08-05T04:10:32.112Z,101125.78
2022-08-05T04:13:04.408Z,101120.66
2022-08-05T04:15:33.118Z,101126.22
2022-08-05T04:18:06.964Z,101127.66
2022-08-05T04:20:34.716Z,101120.63
2022-08-05T04:23:01.716Z,101124.16
2022-08-05T04:25:57.519Z,101127.38
2022-08-05T04:28:15.209Z,101130.94
2022-08-05T04:30:44.554Z,101129.75
2022-08-05T04:33:12.316Z,101132.16
2022-08-05T04:36:16.517Z,101135.34
2022-08-05T04:38:39.463Z,101135.34
2022-08-05T04:41:09.334Z,101134.91
2022-08-05T04:43:37.835Z,101134.56
2022-08-05T04:46:07.619Z,101139.59
2022-08-05T04:48:34.301Z,101135.28
2022-08-05T04:51:03.721Z,101124.75
2022-08-05T04:53:39.320Z,101130.22
2022-08-05T04:56:32.659Z,101125.88
2022-08-05T04:58:54.624Z,101134.16
2022-08-05T05:02:05.725Z,101135.75
2022-08-05T05:04:11.087Z,101133.72
2022-08-05T05:06:44.814Z,101127.41
2022-08-05T05:09:17.322Z,101132.13
2022-08-05T05:11:54.652Z,101140.03
2022-08-05T05:14:27.691Z,101139.53
2022-08-05T05:17:00.221Z,101137.97
2022-08-05T05:19:36.329Z,101139.56
2022-08-05T05:22:22.545Z,101142.31
2022-08-05T05:24:58.619Z,101156.56
2022-08-05T05:27:45.422Z,101157.75
2022-08-05T05:30:15.288Z,101155.38
2022-08-05T05:32:57.265Z,101163.66
2022-08-05T05:35:31.601Z,101153.25
2022-08-05T05:38:09.334Z,101169.47
2022-08-05T05:40:43.767Z,101168.34
2022-08-05T05:43:14.815Z,101174.16
2022-08-05T05:45:49.464Z,101172.63
2022-08-05T05:48:16.491Z,101179.78
2022-08-05T05:50:44.266Z,101169.50
2022-08-05T05:53:22.076Z,101185.75
2022-08-05T05:56:00.729Z,101188.59
2022-08-05T05:58:31.866Z,101200.56
2022-08-05T06:01:12.376Z,101208.69
2022-08-05T06:04:01.431Z,101205.13
2022-08-05T06:06:33.055Z,101214.59
2022-08-05T06:09:05.181Z,101222.44
2022-08-05T06:11:33.080Z,101230.34
2022-08-05T06:14:00.835Z,101228.75
2022-08-05T06:16:36.716Z,101230.84
2022-08-05T06:19:05.696Z,101225.78
2022-08-05T06:21:36.958Z,101220.00
2022-08-05T06:24:11.254Z,101218.47
2022-08-05T06:26:38.415Z,101224.72
2022-08-05T06:29:06.931Z,101232.56
2022-08-05T06:31:51.955Z,101244.63
2022-08-05T06:34:19.941Z,101254.41
2022-08-05T06:36:56.998Z,101260.00
2022-08-05T06:39:26.754Z,101256.50
2022-08-05T06:41:57.408Z,101256.84
2022-08-05T06:44:26.098Z,101255.28
2022-08-05T06:46:54.359Z,101265.56
2022-08-05T06:50:00.298Z,101262.31
2022-08-05T06:52:36.886Z,101259.56
2022-08-05T06:54:56.569Z,101274.56
2022-08-05T06:58:02.699Z,101272.88
2022-08-05T07:00:10.745Z,101270.91
2022-08-05T07:02:43.680Z,101281.19
2022-08-05T07:05:14.224Z,101280.41
2022-08-05T07:07:45.192Z,101288.50
2022-08-05T07:10:14.895Z,101283.75
2022-08-05T07:13:01.919Z,101296.06
2022-08-05T07:16:00.920Z,101301.59
2022-08-05T07:18:32.238Z,101302.38
2022-08-05T07:21:04.639Z,101308.31
2022-08-05T07:23:32.587Z,101309.13
2022-08-05T07:25:59.813Z,101308.91
2022-08-05T07:28:27.126Z,101321.78
2022-08-05T07:30:55.072Z,101319.16
2022-08-05T07:33:36.822Z,101321.72
2022-08-05T07:36:21.157Z,101320.50
2022-08-05T07:38:49.169Z,101325.31
2022-08-05T07:42:09.441Z,101325.69
2022-08-05T07:44:18.667Z,101324.50
2022-08-05T07:46:49.385Z,101317.41
2022-08-05T07:49:18.228Z,101320.16
2022-08-05T07:51:53.520Z,101324.84
2022-08-05T07:54:31.250Z,101339.50
2022-08-05T07:57:14.691Z,101339.13
2022-08-05T07:59:49.289Z,101347.09
2022-08-05T08:02:17.619Z,101349.44
2022-08-05T08:04:46.603Z,101334.41
2022-08-05T08:07:14.052Z,101350.22
2022-08-05T08:09:42.621Z,101351.00
2022-08-05T08:12:19.953Z,101364.47
2022-08-05T08:14:57.157Z,101359.75
2022-08-05T08:17:30.746Z,101358.97
2022-08-05T08:20:42.613Z,101352.63
2022-08-05T08:22:44.815Z,101356.97
2022-08-05T08:25:16.427Z,101364.09
2022-08-05T08:27:44.981Z,101364.47
2022-08-05T08:30:27.677Z,101359.75
2022-08-05T08:33:04.528Z,101376.00
2022-08-05T08:35:41.310Z,101366.44
2022-08-05T08:38:35.642Z,101378.34
2022-08-05T08:41:08.498Z,101372.38
2022-08-05T08:45:20.237Z,101383.06
2022-08-05T08:46:28.038Z,101379.94
2022-08-05T08:49:07.765Z,101380.72
2022-08-05T08:52:13.095Z,101397.66
2022-08-05T08:54:43.367Z,101402.03
2022-08-05T08:57:13.448Z,101406.03
2022-08-05T08:59:41.931Z,101407.63
2022-08-05T09:02:14.668Z,101410.00
2022-08-05T09:04:58.300Z,101410.00
2022-08-05T09:07:39.899Z,101416.31
2022-08-05T09:10:20.610Z,101417.50
2022-08-05T09:12:50.966Z,101416.75
2022-08-05T09:15:20.346Z,101422.53
2022-08-05T09:17:49.824Z,101409.16
2022-08-05T09:20:36.622Z,101424.09
2022-08-05T09:23:07.726Z,101428.50
2022-08-05T09:26:02.518Z,101423.59
2022-08-05T09:28:32.420Z,101428.22
2022-08-05T09:31:43.710Z,101427.72
2022-08-05T09:34:09.829Z,101439.84
2022-08-05T09:36:55.910Z,101424.31
2022-08-05T09:39:27.587Z,101425.91
2022-08-05T09:42:08.588Z,101438.94
2022-08-05T09:44:43.026Z,101452.31
2022-08-05T09:47:20.647Z,101442.75
2022-08-05T09:50:01.057Z,101448.78
2022-08-05T09:52:34.317Z,101447.50
2022-08-05T09:55:57.427Z,101445.66
2022-08-05T09:57:58.616Z,101440.44
2022-08-05T10:00:26.778Z,101450.28
2022-08-05T10:02:58.258Z,101440.41
2022-08-05T10:05:27.775Z,101444.41
2022-08-05T10:08:36.053Z,101442.34
2022-08-05T10:10:53.830Z,101447.94
2022-08-05T10:13:43.869Z,101440.78
2022-08-05T10:16:42.036Z,101448.69
2022-08-05T10:20:02.917Z,101430.28
2022-08-05T10:22:30.178Z,101441.72
2022-08-05T10:25:01.726Z,101427.44
2022-08-05T10:28:09.158Z,101447.47
2022-08-05T10:32:03.025Z,101442.38
2022-08-05T10:33:04.766Z,101443.13
2022-08-05T10:35:43.797Z,101443.94
2022-08-05T10:38:13.861Z,101441.19
2022-08-05T10:40:45.039Z,101442.72
2022-08-05T10:43:36.568Z,101443.53
2022-08-05T10:46:08.826Z,101440.31
2022-08-05T10:48:57.396Z,101449.91
2022-08-05T10:51:29.274Z,101460.19
2022-08-05T10:54:05.589Z,101458.50
2022-08-05T10:56:44.992Z,101461.28
2022-08-05T11:00:02.261Z,101464.44
2022-08-05T11:02:14.700Z,101464.16
2022-08-05T11:04:57.291Z,101453.75
2022-08-05T11:07:32.784Z,101461.72
2022-08-05T11:10:27.678Z,101472.44
2022-08-05T11:12:57.171Z,101472.03
2022-08-05T11:15:59.394Z,101470.41
2022-08-05T11:18:32.606Z,101487.50
2022-08-05T11:21:02.882Z,101478.13
2022-08-05T11:24:04.207Z,101472.41
2022-08-05T11:26:43.341Z,101477.38
2022-08-05T11:29:36.176Z,101486.13
2022-08-05T11:32:24.534Z,101489.81
2022-08-05T11:34:54.427Z,101488.31
2022-08-05T11:38:29.692Z,101498.75
2022-08-05T11:41:34.545Z,101496.41
2022-08-05T11:44:04.969Z,101496.25
2022-08-05T11:47:09.615Z,101499.94
2022-08-05T11:49:35.478Z,101506.22
2022-08-05T11:52:11.536Z,101515.44
2022-08-05T11:54:40.324Z,101504.41
2022-08-05T11:57:24.731Z,101519.03
2022-08-05T11:59:52.882Z,101521.31
2022-08-05T12:02:30.421Z,101519.47
2022-08-05T12:05:07.189Z,101526.63
2022-08-05T12:08:07.814Z,101519.53
2022-08-05T12:10:43.336Z,101515.22
2022-08-05T12:13:27.725Z,101532.19
2022-08-05T12:16:18.514Z,101532.19
2022-08-05T12:18:49.349Z,101535.81
2022-08-05T12:21:24.321Z,101545.06
2022-08-05T12:24:07.685Z,101533.94
2022-08-05T12:26:44.032Z,101545.06
2022-08-05T12:29:15.953Z,101549.03
2022-08-05T12:32:02.263Z,101560.47
2022-08-05T12:34:37.150Z,101563.28
2022-08-05T12:37:29.779Z,101564.84
2022-08-05T12:40:03.593Z,101568.81
2022-08-05T12:42:41.387Z,101562.47
2022-08-05T12:45:11.884Z,101565.25
2022-08-05T12:47:43.450Z,101564.44
2022-08-05T12:50:25.847Z,101576.16
2022-08-05T12:52:59.666Z,101573.41
2022-08-05T12:55:33.026Z,101579.41
2022-08-05T12:58:51.067Z,101591.97
2022-08-05T13:02:02.844Z,101596.06
2022-08-05T13:03:38.986Z,101594.88
2022-08-05T13:06:13.190Z,101595.22
2022-08-05T13:08:40.127Z,101595.41
2022-08-05T13:11:07.992Z,101592.22
2022-08-05T13:14:06.217Z,101603.28
2022-08-05T13:16:25.583Z,101591.78
2022-08-05T13:18:58.761Z,101602.50
2022-08-05T13:21:27.698Z,101600.91
2022-08-05T13:23:54.845Z,101602.50
2022-08-05T13:26:29.872Z,101606.88
2022-08-05T13:28:59.348Z,101612.00
2022-08-05T13:31:33.740Z,101607.22
2022-08-05T13:34:24.102Z,101619.00
2022-08-05T13:36:53.887Z,101604.03
2022-08-05T13:40:12.861Z,101623.13
2022-08-05T13:42:14.442Z,101609.59
2022-08-05T13:44:45.542Z,101625.91
2022-08-05T13:47:28.121Z,101634.28
2022-08-05T13:50:01.325Z,101626.69
2022-08-05T13:52:32.252Z,101637.00
2022-08-05T13:55:03.076Z,101636.22
2022-08-05T13:57:51.392Z,101637.78
2022-08-05T14:00:26.838Z,101642.13
2022-08-05T14:02:56.581Z,101634.63
2022-08-05T14:05:48.352Z,101643.75
2022-08-05T14:08:20.232Z,101640.97
2022-08-05T14:10:54.168Z,101644.16
2022-08-05T14:13:30.424Z,101652.06
2022-08-05T14:16:07.635Z,101654.47
2022-08-05T14:18:38.164Z,101651.69
2022-08-05T14:22:07.469Z,101652.84
2022-08-05T14:23:52.187Z,101666.72
2022-08-05T14:26:36.812Z,101661.97
2022-08-05T14:29:16.150Z,101663.53
2022-08-05T14:32:02.600Z,101665.13
2022-08-05T14:34:36.744Z,101666.34
2022-08-05T14:37:06.610Z,101671.13
2022-08-05T14:39:49.776Z,101663.97
2022-08-05T14:42:22.317Z,101660.81
2022-08-05T14:44:49.727Z,101671.47
2022-08-05T14:47:16.977Z,101654.03
2022-08-05T14:50:17.430Z,101664.41
2022-08-05T14:52:53.159Z,101673.91
2022-08-05T14:55:24.749Z,101667.19
2022-08-05T14:57:56.489Z,101666.38
2022-08-05T15:00:27.907Z,101660.78
2022-08-05T15:02:56.948Z,101663.56
2022-08-05T15:05:30.030Z,101655.66
2022-08-05T15:08:38.086Z,101657.66
2022-08-05T15:11:00.158Z,101664.00
2022-08-05T15:13:28.671Z,101660.38
2022-08-05T15:16:13.576Z,101662.00
2022-08-05T15:18:40.367Z,101669.94
2022-08-05T15:21:08.830Z,101671.91
2022-08-05T15:23:35.922Z,101674.66
2022-08-05T15:26:04.856Z,101673.47
2022-08-05T15:28:31.893Z,101682.19
2022-08-05T15:30:58.737Z,101680.63
2022-08-05T15:34:05.481Z,101677.47
2022-08-05T15:36:17.605Z,101678.66
2022-08-05T15:41:03.180Z,101677.06
2022-08-05T15:41:57.651Z,101685.41
2022-08-05T15:44:27.424Z,101684.19
2022-08-05T15:46:55.768Z,101692.56
2022-08-05T15:49:40.891Z,101695.25
2022-08-05T15:52:14.199Z,101704.00
2022-08-05T15:54:44.480Z,101697.59
2022-08-05T15:57:13.465Z,101685.75
2022-08-05T15:59:40.587Z,101700.81
2022-08-05T16:02:09.756Z,101705.53
2022-08-05T16:04:42.953Z,101697.25
2022-08-05T16:07:11.894Z,101711.47
2022-08-05T16:09:41.525Z,101701.41
2022-08-05T16:12:09.274Z,101716.16
2022-08-05T16:14:38.253Z,101724.00
2022-08-05T16:17:05.253Z,101727.41
2022-08-05T16:20:05.217Z,101742.19
2022-08-05T16:22:27.455Z,101726.72
2022-08-05T16:25:00.952Z,101726.28
2022-08-05T16:27:59.626Z,101731.06
2022-08-05T16:30:26.262Z,101736.50
2022-08-05T16:32:55.739Z,101737.34
2022-08-05T16:35:27.847Z,101725.03
2022-08-05T16:38:15.127Z,101750.97
2022-08-05T16:40:51.990Z,101752.13
2022-08-05T16:43:26.524Z,101757.53
2022-08-05T16:46:05.897Z,101741.44
2022-08-05T16:48:38.250Z,101767.25
2022-08-05T16:51:10.061Z,101755.38
2022-08-05T16:54:04.808Z,101767.13
2022-08-05T16:56:30.225Z,101771.16
2022-08-05T16:58:57.934Z,101779.72
2022-08-05T17:01:25.099Z,101780.06
2022-08-05T17:03:52.285Z,101788.25
2022-08-05T17:06:20.761Z,101801.13
2022-08-05T17:08:54.477Z,101802.00
2022-08-05T17:11:25.766Z,101802.78
2022-08-05T17:14:05.607Z,101798.75
2022-08-05T17:16:37.777Z,101808.75
2022-08-05T17:19:09.721Z,101813.94
2022-08-05T17:21:39.640Z,101824.75
2022-08-05T17:24:18.450Z,101822.22
2022-08-05T17:26:47.315Z,101816.75
2022-08-05T17:29:14.732Z,101825.34
2022-08-05T17:31:58.463Z,101821.81
2022-08-05T17:34:29.732Z,101826.28
2022-08-05T17:36:59.939Z,101832.63
2022-08-05T17:39:34.039Z,101839.13
2022-08-05T17:42:18.159Z,101842.44
2022-08-05T17:44:50.366Z,101849.28
2022-08-05T17:47:23.127Z,101843.38
2022-08-05T17:50:00.002Z,101853.28
2022-08-05T17:52:32.554Z,101858.22
2022-08-05T17:55:02.965Z,101863.16
2022-08-05T17:57:30.128Z,101873.41
2022-08-05T18:00:05.483Z,101872.19
2022-08-05T18:02:35.311Z,101878.81
2022-08-05T18:05:06.282Z,101878.41
2022-08-05T18:07:41.781Z,101876.06
2022-08-05T18:10:11.187Z,101888.22
2022-08-05T18:12:38.766Z,101895.38
2022-08-05T18:15:09.783Z,101897.69
2022-08-05T18:17:59.161Z,101910.25
2022-08-05T18:20:29.279Z,101898.94
2022-08-05T18:23:09.509Z,101913.94
2022-08-05T18:25:44.865Z,101913.38
2022-08-05T18:28:16.049Z,101917.75
2022-08-05T18:30:50.975Z,101920.84
2022-08-05T18:33:22.697Z,101924.47
2022-08-05T18:36:03.229Z,101923.31
2022-08-05T18:38:35.880Z,101931.66
2022-08-05T18:41:55.810Z,101931.97
2022-08-05T18:43:50.626Z,101943.13
2022-08-05T18:46:19.909Z,101946.94
2022-08-05T18:48:52.616Z,101949.94
2022-08-05T18:52:06.090Z,101952.13
2022-08-05T18:54:28.420Z,101950.19
2022-08-05T18:56:58.640Z,101968.66
2022-08-05T18:59:44.173Z,101961.22
2022-08-05T19:02:26.728Z,101959.94
2022-08-05T19:05:02.900Z,101956.44
2022-08-05T19:07:46.635Z,101965.22
2022-08-05T19:10:14.984Z,101967.09
2022-08-05T19:12:43.114Z,101975.97
2022-08-05T19:15:25.188Z,101981.34
2022-08-05T19:18:09.762Z,101973.72
2022-08-05T19:20:41.367Z,101979.97
2022-08-05T19:24:04.272Z,101986.81
2022-08-05T19:26:01.097Z,101984.00
2022-08-05T19:28:32.858Z,101993.41
2022-08-05T19:31:00.865Z,101991.22
2022-08-05T19:33:35.663Z,102001.28
2022-08-05T19:36:06.447Z,102003.50
2022-08-05T19:38:35.722Z,102003.56
2022-08-05T19:41:07.288Z,102004.59
2022-08-05T19:44:05.888Z,102002.94
2022-08-05T19:46:29.950Z,102009.00
2022-08-05T19:49:03.072Z,102012.84
2022-08-05T19:52:05.948Z,102017.56
2022-08-05T19:54:31.048Z,102018.66
2022-08-05T19:57:02.395Z,102025.09
2022-08-05T19:59:56.487Z,102032.31
2022-08-05T20:02:20.468Z,102021.94
2022-08-05T20:04:48.378Z,102033.09
2022-08-05T20:07:15.609Z,102040.44
2022-08-05T20:10:11.519Z,102041.13
2022-08-05T20:12:47.577Z,102042.66
2022-08-05T20:15:47.745Z,102035.72
2022-08-05T20:18:10.089Z,102046.75
2022-08-05T20:20:55.864Z,102049.19
2022-08-05T20:23:23.383Z,102048.38
2022-08-05T20:25:52.211Z,102049.00
2022-08-05T20:28:20.397Z,102056.56
2022-08-05T20:30:49.399Z,102058.88
2022-08-05T20:33:16.473Z,102057.00
2022-08-05T20:35:45.265Z,102059.13
2022-08-05T20:38:20.097Z,102055.31
2022-08-05T20:40:55.386Z,102055.75
2022-08-05T20:43:33.224Z,102056.38
2022-08-05T20:46:18.262Z,102044.47
2022-08-05T20:48:51.577Z,102053.63
2022-08-05T20:51:18.325Z,102049.72
2022-08-05T20:53:56.939Z,102056.19
2022-08-05T20:56:29.112Z,102066.19
2022-08-05T20:59:04.142Z,102049.09
2022-08-05T21:01:41.428Z,102058.50
2022-08-05T21:04:10.655Z,102060.66
2022-08-05T21:06:45.847Z,102059.19
2022-08-05T21:09:14.230Z,102066.63
2022-08-05T21:12:10.491Z,102057.66
2022-08-05T21:14:29.481Z,102071.06
2022-08-05T21:17:01.964Z,102070.78
2022-08-05T21:19:29.901Z,102070.28
2022-08-05T21:22:14.752Z,102075.19
2022-08-05T21:24:44.787Z,102065.34
2022-08-05T21:27:16.356Z,102065.34
2022-08-05T21:29:43.536Z,102073.25
2022-08-05T21:32:17.092Z,102079.13
2022-08-05T21:35:06.957Z,102084.91
2022-08-05T21:40:34.360Z,102106.56
2022-08-05T21:43:01.326Z,102103.91
2022-08-05T21:45:56.211Z,102107.63
2022-08-05T21:48:19.393Z,102109.75
2022-08-05T21:50:54.027Z,102115.09
2022-08-05T21:53:21.529Z,102108.31
2022-08-05T21:56:04.667Z,102107.19
2022-08-05T21:58:48.216Z,102111.81
2022-08-05T22:01:25.658Z,102115.59
2022-08-05T22:03:53.602Z,102123.25
2022-08-05T22:06:22.319Z,102117.94
2022-08-05T22:08:52.089Z,102125.31
2022-08-05T22:11:35.509Z,102121.41
2022-08-05T22:14:06.168Z,102127.16
2022-08-05T22:16:55.883Z,102124.09
2022-08-05T22:20:02.937Z,102131.78
2022-08-05T22:22:11.692Z,102130.94
2022-08-05T22:25:00.407Z,102141.13
2022-08-05T22:28:10.911Z,102138.47
2022-08-05T22:30:44.171Z,102140.78
2022-08-05T22:33:58.372Z,102139.78
2022-08-05T22:36:17.550Z,102135.06
2022-08-05T22:38:48.156Z,102147.44
2022-08-05T22:42:04.579Z,102143.75
2022-08-05T22:44:07.982Z,102145.63
2022-08-05T22:46:40.158Z,102152.13
2022-08-05T22:49:12.404Z,102156.28
2022-08-05T22:52:05.105Z,102157.28
2022-08-05T22:54:36.076Z,102151.94
2022-08-05T22:57:04.686Z,102159.25
2022-08-05T22:59:45.874Z,102153.53
2022-08-05T23:02:29.603Z,102170.38
2022-08-05T23:05:01.529Z,102167.50
2022-08-05T23:07:30.413Z,102170.47
2022-08-05T23:10:01.433Z,102165.19
2022-08-05T23:12:32.538Z,102162.91
2022-08-05T23:15:03.473Z,102167.19
2022-08-05T23:17:34.369Z,102164.63
2022-08-05T23:20:15.514Z,102162.44
2022-08-05T23:22:48.320Z,102173.59
2022-08-05T23:25:53.092Z,102166.69
2022-08-05T23:28:06.885Z,102172.06
2022-08-05T23:30:39.675Z,102175.72
2022-08-05T23:33:16.347Z,102178.59
2022-08-05T23:35:50.421Z,102174.03
2022-08-05T23:38:18.146Z,102181.09
2022-08-05T23:40:49.377Z,102184.09
2022-08-05T23:43:25.010Z,102186.34
2022-08-05T23:46:20.278Z,102189.66
2022-08-05T23:48:59.817Z,102186.94
2022-08-05T23:51:53.948Z,102194.47
2022-08-05T23:54:38.329Z,102193.31
2022-08-05T23:57:06.430Z,102186.06
